Belle-ile — WDI3204 — position and weather

sailwx.info

Track history (hours):
 
Tides and Currents Weather Stations Pressure Air Temp Water Temp Dewpoint Dewpoint Depression Visibility Wind Speed Wind Dir Waves Ship Positions

Belle-ile

Owner: De Mello e Souza, Carlos A, Edmonds, WA. More information available from US FCC via Universal Licensing System and Coast Guard Vessel Documentation Center.

Last reported at 2017-Nov-22 20:12 UTC. Time now 2017-Nov-22 21:43 UTC.
Position N 47°48' W 122°30'.

Length 10 m.

Type: Sailing vessel. MMSI: 367685880.

Date/timePositionNaut miles runAvg speedWind from/ knotsBaromVisibWave heightAir tempDewpointWater temp
2017-Nov-22 20:12N 47°48' W 122°30'1 3.7
2017-Nov-22 19:59N 47°47' W 122°29'3 5.7
2017-Nov-22 19:29N 47°48' W 122°25'  
2017-Nov-19 04:07N 47°49' W 122°23'0 0.0
2017-Nov-19 03:58N 47°49' W 122°23'0 0.0
2017-Nov-19 03:30N 47°49' W 122°23'2 4.6
2017-Nov-19 03:00N 47°48' W 122°27'2 0.8
2017-Nov-19 00:13N 47°48' W 122°30'1 4.6
2017-Nov-18 23:57N 47°47' W 122°28'3 6.3
2017-Nov-18 23:30N 47°48' W 122°24'  
2017-Nov-12 23:35N 47°49' W 122°23'0 0.0
2017-Nov-12 23:23N 47°49' W 122°23'0 0.0
2017-Nov-12 22:56N 47°49' W 122°23'  
Track history (hours):
 
Tides and Currents Weather Stations Pressure Air Temp Water Temp Dewpoint Dewpoint Depression Visibility Wind Speed Wind Dir Waves Ship Positions

Belle-ile

Owner: De Mello e Souza, Carlos A, Edmonds, WA. More information available from US FCC via Universal Licensing System and Coast Guard Vessel Documentation Center.

Last reported at 2017-Nov-22 20:12 UTC. Time now 2017-Nov-22 21:43 UTC.
Position N 47°48' W 122°30'.

Length 10 m.

Type: Sailing vessel. MMSI: 367685880.

Date/timePositionNaut miles runAvg speedWind from/ knotsBaromVisibWave heightAir tempDewpointWater temp
2017-Nov-22 20:12N 47°48' W 122°30'1 3.7
2017-Nov-22 19:59N 47°47' W 122°29'3 5.7
2017-Nov-22 19:29N 47°48' W 122°25'  
2017-Nov-19 04:07N 47°49' W 122°23'0 0.0
2017-Nov-19 03:58N 47°49' W 122°23'0 0.0
2017-Nov-19 03:30N 47°49' W 122°23'2 4.6
2017-Nov-19 03:00N 47°48' W 122°27'2 0.8
2017-Nov-19 00:13N 47°48' W 122°30'1 4.6
2017-Nov-18 23:57N 47°47' W 122°28'3 6.3
2017-Nov-18 23:30N 47°48' W 122°24'  
2017-Nov-12 23:35N 47°49' W 122°23'0 0.0
2017-Nov-12 23:23N 47°49' W 122°23'0 0.0
2017-Nov-12 22:56N 47°49' W 122°23'  

Dump ship's entire track history